Time;durP1;ratioP1;P1;durP2;ratioP2;P2;SDS_P1;SDS_P2;PMS_P1;PMS_P2;Temp;Humidity;BMP_temperature;BMP_pressure;BME280_temperature;BME280_humidity;BME280_pressure;Samples;Min_cycle;Max_cycle;Signal;HPM_P1;HPM_P2
2022/01/04 00:02:15;;;;;;;18.57;9.57;;;;;;;3.25;100.00;96876.08;1749704;82;21044;-72
2022/01/04 00:04:42;;;;;;;15.53;7.70;;;;;;;3.24;100.00;96877.12;1748161;82;21109;-73
2022/01/04 00:07:09;;;;;;;17.13;8.20;;;;;;;3.23;100.00;96888.29;1748431;82;21026;-73
2022/01/04 00:09:41;;;;;;;16.77;8.27;;;;;;;3.24;100.00;96883.80;1719281;82;21026;-74
2022/01/04 00:14:57;;;;;;;18.97;8.47;;;;;;;3.28;100.00;96882.35;1718049;82;21011;-74
2022/01/04 00:17:24;;;;;;;17.97;7.87;;;;;;;3.26;100.00;96888.41;1738903;82;20967;-73
2022/01/04 00:19:51;;;;;;;15.83;7.20;;;;;;;3.28;100.00;96894.38;1718050;82;21015;-73
2022/01/04 00:22:18;;;;;;;15.07;7.20;;;;;;;3.31;100.00;96893.13;1738822;82;20979;-74
2022/01/04 00:24:46;;;;;;;16.00;8.10;;;;;;;3.33;100.00;96894.59;1718054;82;21535;-73
2022/01/04 00:27:14;;;;;;;19.20;9.47;;;;;;;3.36;100.00;96888.83;1738701;82;21559;-74
2022/01/04 00:29:43;;;;;;;20.47;10.40;;;;;;;3.44;100.00;96893.17;1742550;82;21503;-74
2022/01/04 00:32:11;;;;;;;20.40;10.50;;;;;;;3.51;100.00;96895.34;1746750;81;21463;-74
2022/01/04 00:34:41;;;;;;;27.20;14.60;;;;;;;3.57;100.00;96891.03;1717459;82;21018;-71
2022/01/04 00:37:08;;;;;;;27.63;15.67;;;;;;;3.57;100.00;96902.53;1746535;82;21108;-74
2022/01/04 00:39:36;;;;;;;29.43;15.63;;;;;;;3.59;100.00;96903.17;1717938;82;21089;-70
2022/01/04 00:42:05;;;;;;;31.33;17.07;;;;;;;3.60;100.00;96902.66;1749483;81;21026;-72
2022/01/04 00:44:32;;;;;;;36.73;20.50;;;;;;;3.59;100.00;96907.67;1746619;82;21041;-73
2022/01/04 00:47:00;;;;;;;30.20;17.53;;;;;;;3.56;100.00;96902.23;1746701;82;21050;-73
2022/01/04 00:49:28;;;;;;;30.80;17.70;;;;;;;3.56;100.00;96904.06;1746676;82;21030;-73
2022/01/04 00:51:55;;;;;;;36.90;20.07;;;;;;;3.57;100.00;96907.06;1746524;82;21436;-72
2022/01/04 00:54:23;;;;;;;38.17;21.13;;;;;;;3.53;100.00;96909.31;1717503;82;21069;-73
2022/01/04 00:56:50;;;;;;;34.77;20.10;;;;;;;3.51;100.00;96907.89;1746592;82;21562;-72
2022/01/04 00:59:17;;;;;;;32.33;17.93;;;;;;;3.48;100.00;96919.78;1746645;82;20974;-74
2022/01/04 01:01:44;;;;;;;30.70;17.33;;;;;;;3.47;100.00;96918.64;1717538;82;20998;-74
2022/01/04 01:04:11;;;;;;;32.57;18.87;;;;;;;3.44;100.00;96925.75;1755983;82;20946;-72
2022/01/04 01:06:40;;;;;;;33.03;17.47;;;;;;;3.39;100.00;96925.82;1757747;81;21570;-74
2022/01/04 01:09:06;;;;;;;30.20;16.17;;;;;;;3.37;100.00;96927.06;1684759;84;21035;-71
2022/01/04 01:11:34;;;;;;;32.47;18.30;;;;;;;3.33;100.00;96939.99;1683287;85;21042;-75
2022/01/04 01:14:01;;;;;;;35.20;19.77;;;;;;;3.34;100.00;96940.81;1671836;86;21035;-75
2022/01/04 01:16:28;;;;;;;35.23;19.73;;;;;;;3.32;100.00;96937.52;1671577;86;21557;-74
2022/01/04 01:18:55;;;;;;;35.33;19.60;;;;;;;3.29;100.00;96950.75;1683483;85;21041;-75
2022/01/04 01:21:24;;;;;;;32.43;18.47;;;;;;;3.28;100.00;96953.64;1671740;85;21035;-73
2022/01/04 01:23:52;;;;;;;37.87;20.50;;;;;;;3.30;100.00;96962.27;1658658;86;21051;-76
2022/01/04 01:26:20;;;;;;;34.27;18.67;;;;;;;3.27;100.00;96958.14;1671790;86;21047;-73
2022/01/04 01:28:47;;;;;;;30.00;15.07;;;;;;;3.25;100.00;96970.88;1683349;85;21571;-72
2022/01/04 01:31:16;;;;;;;27.10;13.83;;;;;;;3.24;100.00;96974.58;1662935;85;22300;-75
2022/01/04 01:33:43;;;;;;;25.00;12.70;;;;;;;3.23;100.00;96980.94;1680398;85;21509;-75
2022/01/04 01:36:12;;;;;;;26.63;12.10;;;;;;;3.20;100.00;96988.81;1705288;84;21073;-74
2022/01/04 01:38:39;;;;;;;15.73;7.43;;;;;;;3.17;100.00;96994.58;1705494;84;20999;-70
2022/01/04 01:41:06;;;;;;;14.60;6.90;;;;;;;3.14;100.00;96987.47;1690347;85;21046;-73
2022/01/04 01:43:33;;;;;;;13.23;6.43;;;;;;;3.12;100.00;96999.69;1661201;85;21078;-75
2022/01/04 01:46:01;;;;;;;11.77;6.27;;;;;;;3.11;100.00;96999.88;1680245;85;21125;-73
2022/01/04 01:48:28;;;;;;;11.00;5.83;;;;;;;3.10;100.00;97007.07;1661741;85;21673;-73
2022/01/04 01:50:56;;;;;;;7.23;4.90;;;;;;;3.07;100.00;97006.64;1680082;85;21070;-74
2022/01/04 01:53:23;;;;;;;8.30;4.47;;;;;;;3.04;100.00;97018.52;1661371;85;21022;-77
2022/01/04 01:55:58;;;;;;;6.33;4.23;;;;;;;3.03;100.00;97014.22;1663704;85;21070;-74
2022/01/04 01:58:25;;;;;;;8.63;4.53;;;;;;;3.01;100.00;97021.58;1661796;85;21560;-74
2022/01/04 02:00:52;;;;;;;6.03;4.47;;;;;;;2.97;100.00;97025.15;1660455;85;21007;-73
2022/01/04 02:03:19;;;;;;;8.73;4.83;;;;;;;2.94;100.00;97030.06;1673743;84;21024;-75
2022/01/04 02:05:46;;;;;;;8.13;4.70;;;;;;;2.90;100.00;97025.62;1684815;84;21102;-74
2022/01/04 02:08:13;;;;;;;9.30;4.90;;;;;;;2.88;100.00;97025.52;1696692;84;20986;-74
2022/01/04 02:10:42;;;;;;;8.67;4.07;;;;;;;2.84;100.00;97029.09;1661975;85;21158;-74
2022/01/04 02:13:09;;;;;;;6.27;3.90;;;;;;;2.80;100.00;97034.52;1683524;85;21034;-74
2022/01/04 02:15:36;;;;;;;5.63;4.10;;;;;;;2.76;100.00;97039.42;1661844;85;21042;-73
2022/01/04 02:18:03;;;;;;;5.57;3.80;;;;;;;2.75;100.00;97035.61;1662043;85;21042;-72
2022/01/04 02:20:30;;;;;;;4.70;3.50;;;;;;;2.75;100.00;97041.76;1683271;85;21034;-74
2022/01/04 02:22:58;;;;;;;4.97;3.80;;;;;;;2.74;100.00;97045.95;1683419;84;21070;-73
2022/01/04 02:25:25;;;;;;;5.67;3.73;;;;;;;2.72;100.00;97050.14;1683108;85;21089;-73
2022/01/04 02:27:52;;;;;;;7.37;4.27;;;;;;;2.73;100.00;97046.98;1683577;84;20975;-73
2022/01/04 02:30:20;;;;;;;11.70;4.37;;;;;;;2.72;100.00;97054.66;1692040;84;21570;-74
2022/01/04 02:32:47;;;;;;;8.23;4.37;;;;;;;2.74;100.00;97061.95;1699578;84;21526;-74
2022/01/04 02:35:16;;;;;;;7.63;4.53;;;;;;;2.73;100.00;97064.33;1691532;84;21034;-73
2022/01/04 02:37:43;;;;;;;8.50;4.60;;;;;;;2.71;100.00;97068.52;1699913;84;21479;-73
2022/01/04 02:40:12;;;;;;;8.03;4.67;;;;;;;2.68;100.00;97072.91;1700807;84;21033;-71
2022/01/04 02:42:39;;;;;;;8.97;4.57;;;;;;;2.66;100.00;97073.61;1701222;84;21049;-74
2022/01/04 02:45:08;;;;;;;6.87;4.20;;;;;;;2.64;100.00;97067.13;1691829;84;21069;-73
2022/01/04 02:47:35;;;;;;;5.87;3.87;;;;;;;2.62;100.00;97071.84;1699592;84;21045;-72
2022/01/04 02:50:03;;;;;;;5.90;3.93;;;;;;;2.61;100.00;97069.36;1692342;84;21057;-72
2022/01/04 02:52:32;;;;;;;4.90;3.77;;;;;;;2.59;100.00;97078.89;1699560;84;21018;-73
2022/01/04 02:55:01;;;;;;;6.70;3.60;;;;;;;2.57;100.00;97076.11;1692238;84;21057;-73
2022/01/04 02:57:29;;;;;;;5.73;3.83;;;;;;;2.55;100.00;97078.97;1674905;85;21053;-73
2022/01/04 02:59:56;;;;;;;4.90;3.53;;;;;;;2.55;100.00;97090.97;1652375;86;21121;-74
2022/01/04 03:02:23;;;;;;;7.07;3.47;;;;;;;2.55;100.00;97089.64;1675666;85;21089;-73
2022/01/04 03:04:50;;;;;;;5.47;3.30;;;;;;;2.53;100.00;97090.83;1677917;85;21109;-72
2022/01/04 03:07:17;;;;;;;4.63;3.30;;;;;;;2.51;100.00;97093.69;1677985;85;21053;-73
2022/01/04 03:09:44;;;;;;;3.30;3.00;;;;;;;2.52;100.00;97095.34;1675435;85;21082;-74
2022/01/04 03:12:11;;;;;;;5.53;3.17;;;;;;;2.54;100.00;97103.16;1675214;86;21100;-73
2022/01/04 03:14:39;;;;;;;4.90;3.30;;;;;;;2.53;100.00;97113.50;1675149;86;21587;-74
2022/01/04 03:17:07;;;;;;;5.33;3.13;;;;;;;2.52;100.00;97114.02;1674984;86;21527;-74
2022/01/04 03:19:34;;;;;;;4.17;3.40;;;;;;;2.52;100.00;97116.69;1652478;86;21012;-74
2022/01/04 03:22:01;;;;;;;6.33;3.57;;;;;;;2.53;100.00;97118.83;1675302;86;21101;-74
2022/01/04 03:24:28;;;;;;;5.20;3.90;;;;;;;2.54;100.00;97121.83;1674974;86;21105;-73
2022/01/04 03:26:57;;;;;;;7.80;3.90;;;;;;;2.52;100.00;97126.02;1675297;86;21022;-73
2022/01/04 03:29:25;;;;;;;8.03;4.50;;;;;;;2.51;100.00;97125.69;1673467;86;21554;-73
2022/01/04 03:31:52;;;;;;;7.40;4.30;;;;;;;2.51;100.00;97127.55;1647782;87;21043;-72
2022/01/04 03:34:20;;;;;;;9.10;3.87;;;;;;;2.51;100.00;97132.36;1647637;86;21055;-73
2022/01/04 03:36:47;;;;;;;7.30;4.10;;;;;;;2.49;100.00;97129.06;1625525;87;21122;-73
2022/01/04 03:39:14;;;;;;;7.33;3.87;;;;;;;2.50;100.00;97141.88;1625840;87;21047;-74
2022/01/04 03:41:44;;;;;;;6.53;4.00;;;;;;;2.47;100.00;97137.25;1647578;87;21043;-73
2022/01/04 03:44:18;;;;;;;8.53;3.83;;;;;;;2.45;100.00;97145.14;1625692;87;21062;-73
2022/01/04 03:46:41;;;;;;;6.10;3.60;;;;;;;2.44;100.00;97147.47;1644453;87;21090;-73
2022/01/04 03:49:08;;;;;;;8.67;3.90;;;;;;;2.40;100.00;97152.36;1625736;87;21118;-73
2022/01/04 03:51:36;;;;;;;6.70;4.10;;;;;;;2.40;100.00;97159.03;1647450;87;21119;-73
2022/01/04 03:54:02;;;;;;;7.10;3.73;;;;;;;2.38;100.00;97166.91;1669204;84;21022;-74
2022/01/04 03:56:31;;;;;;;6.60;3.67;;;;;;;2.37;100.00;97167.41;1698637;84;21061;-73
2022/01/04 03:58:58;;;;;;;5.67;3.47;;;;;;;2.35;100.00;97177.44;1698962;84;21068;-72
2022/01/04 04:01:25;;;;;;;6.23;3.57;;;;;;;2.32;100.00;97180.50;1699040;84;21088;-72
2022/01/04 04:03:52;;;;;;;5.80;3.40;;;;;;;2.30;100.00;97186.50;1707748;84;21050;-73
2022/01/04 04:06:19;;;;;;;5.53;3.33;;;;;;;2.28;100.00;97187.20;1711318;84;21133;-73
2022/01/04 04:08:46;;;;;;;3.93;3.03;;;;;;;2.26;100.00;97192.72;1711399;84;21500;-74
2022/01/04 04:11:13;;;;;;;5.37;3.37;;;;;;;2.24;100.00;97194.76;1691256;84;21015;-74
2022/01/04 04:13:40;;;;;;;6.67;3.27;;;;;;;2.22;100.00;97196.79;1691047;83;21035;-73
2022/01/04 04:16:07;;;;;;;4.90;3.07;;;;;;;2.22;100.00;97204.79;1690830;84;21035;-72
2022/01/04 04:18:34;;;;;;;5.73;3.17;;;;;;;2.23;100.00;97210.45;1711553;84;20972;-73
2022/01/04 04:21:01;;;;;;;4.53;3.00;;;;;;;2.24;100.00;97212.60;1691216;84;20980;-74
2022/01/04 04:23:29;;;;;;;4.40;3.23;;;;;;;2.22;100.00;97210.63;1691011;84;20988;-73
2022/01/04 04:25:56;;;;;;;5.37;3.60;;;;;;;2.20;100.00;97226.00;1711537;84;21507;-74
2022/01/04 04:28:23;;;;;;;4.50;2.97;;;;;;;2.18;100.00;97222.18;1690876;84;21039;-73
2022/01/04 04:30:50;;;;;;;4.07;3.20;;;;;;;2.17;100.00;97227.18;1704778;84;21095;-73
2022/01/04 04:33:18;;;;;;;5.77;3.83;;;;;;;2.20;100.00;97237.99;1698814;84;20981;-73
2022/01/04 04:35:45;;;;;;;4.40;3.83;;;;;;;2.22;100.00;97241.30;1698996;84;21052;-73
2022/01/04 04:38:12;;;;;;;12.20;6.47;;;;;;;2.22;100.00;97250.11;1698887;84;21484;-73
2022/01/04 04:40:39;;;;;;;9.47;5.50;;;;;;;2.23;100.00;97253.59;1700590;83;21051;-72
2022/01/04 04:43:06;;;;;;;6.07;4.00;;;;;;;2.22;100.00;97248.78;1680271;84;21035;-72
2022/01/04 04:45:33;;;;;;;6.53;4.00;;;;;;;2.22;100.00;97250.11;1698969;84;21012;-71
2022/01/04 04:48:00;;;;;;;10.47;5.73;;;;;;;2.21;100.00;97253.81;1679232;84;21055;-74
2022/01/04 04:50:29;;;;;;;6.83;4.87;;;;;;;2.22;100.00;97254.63;1681994;84;21103;-71
2022/01/04 04:52:57;;;;;;;7.60;4.27;;;;;;;2.21;100.00;97259.14;1703678;84;21074;-75
2022/01/04 04:55:24;;;;;;;5.77;4.13;;;;;;;2.21;100.00;97264.47;1684889;84;21087;-74
2022/01/04 04:57:51;;;;;;;8.77;4.40;;;;;;;2.22;100.00;97273.29;1697364;84;21489;-73
2022/01/04 05:00:18;;;;;;;6.30;4.40;;;;;;;2.21;100.00;97275.14;1698979;84;21031;-72
2022/01/04 05:02:45;;;;;;;6.17;4.20;;;;;;;2.20;100.00;97276.66;1671918;86;21025;-71
2022/01/04 05:05:12;;;;;;;6.43;3.50;;;;;;;2.17;100.00;97281.83;1669316;86;21014;-72
2022/01/04 05:07:38;;;;;;;5.80;3.70;;;;;;;2.16;100.00;97277.53;1649678;86;21069;-70
2022/01/04 05:10:07;;;;;;;4.37;3.77;;;;;;;2.17;100.00;97287.68;1649890;86;21061;-70
2022/01/04 05:12:35;;;;;;;4.87;3.50;;;;;;;2.15;100.00;97288.37;1669367;86;21097;-70
2022/01/04 05:15:04;;;;;;;5.63;3.83;;;;;;;2.13;100.00;97290.41;1669213;86;20998;-72
2022/01/04 05:17:32;;;;;;;4.63;3.60;;;;;;;2.11;100.00;97297.25;1650542;86;21066;-72
2022/01/04 05:20:00;;;;;;;5.10;3.83;;;;;;;2.09;100.00;97300.61;1669431;86;21049;-73
2022/01/04 05:22:27;;;;;;;5.37;4.40;;;;;;;2.08;100.00;97309.09;1650179;86;21048;-73
2022/01/04 05:24:54;;;;;;;6.80;3.80;;;;;;;2.03;100.00;97310.66;1669124;86;21080;-71
2022/01/04 05:27:22;;;;;;;5.07;3.60;;;;;;;2.01;100.00;97311.35;1669277;86;21093;-71
2022/01/04 05:29:48;;;;;;;5.93;4.20;;;;;;;1.98;100.00;97321.03;1669088;86;21072;-72
2022/01/04 05:32:16;;;;;;;6.33;4.03;;;;;;;1.96;100.00;97331.88;1669223;86;21092;-72
2022/01/04 05:34:43;;;;;;;6.63;3.77;;;;;;;1.94;100.00;97335.75;1669216;86;21064;-71
2022/01/04 05:37:10;;;;;;;8.83;4.00;;;;;;;1.93;100.00;97346.08;1650050;86;21056;-71
2022/01/04 05:39:37;;;;;;;6.97;4.40;;;;;;;1.92;100.00;97349.25;1669096;86;21104;-71
2022/01/04 05:42:06;;;;;;;7.63;4.70;;;;;;;1.90;100.00;97357.42;1669311;86;21041;-71
2022/01/04 05:44:36;;;;;;;5.50;3.47;;;;;;;1.91;100.00;97364.91;1669148;86;21045;-71
2022/01/04 05:47:06;;;;;;;6.10;3.73;;;;;;;1.93;100.00;97369.58;1669346;86;21045;-73
2022/01/04 05:49:33;;;;;;;6.73;4.30;;;;;;;1.93;100.00;97368.24;1635126;86;21081;-72
2022/01/04 05:52:00;;;;;;;5.93;4.07;;;;;;;1.94;100.00;97373.05;1635231;87;21059;-72
2022/01/04 05:54:28;;;;;;;5.27;3.83;;;;;;;1.95;100.00;97382.69;1635027;87;21078;-73
2022/01/04 05:56:54;;;;;;;6.53;4.00;;;;;;;1.94;100.00;97384.53;1613348;86;21113;-71
2022/01/04 05:59:22;;;;;;;12.33;7.40;;;;;;;1.95;100.00;97386.69;1635307;88;21082;-71
2022/01/04 06:01:49;;;;;;;9.87;4.77;;;;;;;1.95;100.00;97396.87;1613781;88;21070;-72
2022/01/04 06:04:16;;;;;;;5.73;4.03;;;;;;;1.96;100.00;97401.17;1658064;86;21063;-72
2022/01/04 06:06:44;;;;;;;6.33;3.80;;;;;;;1.95;100.00;97401.34;1662250;86;21067;-71
2022/01/04 06:09:20;;;;;;;8.40;5.40;;;;;;;1.94;100.00;97408.52;1662887;86;21115;-72
2022/01/04 06:16:52;;;;;;;6.63;3.80;;;;;;;1.98;100.00;97427.64;1641195;86;21556;-72
2022/01/04 06:19:20;;;;;;;11.23;5.67;;;;;;;2.00;100.00;97436.28;1663282;86;21099;-73
2022/01/04 06:21:47;;;;;;;6.80;3.70;;;;;;;1.99;100.00;97434.13;1630289;86;21066;-72
2022/01/04 06:24:14;;;;;;;6.83;3.87;;;;;;;1.99;100.00;97445.30;1649018;86;21052;-71
2022/01/04 06:26:42;;;;;;;5.47;3.50;;;;;;;2.00;100.00;97450.46;1651755;86;21054;-72
2022/01/04 06:29:11;;;;;;;6.43;3.40;;;;;;;2.01;100.00;97449.95;1628024;86;21561;-73
2022/01/04 06:31:42;;;;;;;6.67;3.63;;;;;;;2.00;100.00;97455.79;1619135;86;21078;-72
2022/01/04 06:34:09;;;;;;;5.00;3.23;;;;;;;2.00;100.00;97449.61;1618185;87;21015;-72
2022/01/04 06:36:36;;;;;;;3.80;3.00;;;;;;;2.00;100.00;97460.27;1639891;87;21022;-71
2022/01/04 06:39:07;;;;;;;5.73;3.37;;;;;;;2.01;100.00;97462.77;1641744;87;21187;-76
2022/01/04 06:41:35;;;;;;;6.03;3.47;;;;;;;2.01;100.00;97462.77;1567344;90;21026;-71
2022/01/04 06:44:02;;;;;;;5.97;3.43;;;;;;;2.03;100.00;97466.58;1595559;89;21517;-71
2022/01/04 06:46:29;;;;;;;6.23;4.13;;;;;;;2.03;100.00;97470.58;1617136;88;21072;-70
2022/01/04 06:48:56;;;;;;;5.57;3.60;;;;;;;2.05;100.00;97481.41;1677016;84;21074;-72
2022/01/04 06:51:23;;;;;;;6.37;3.80;;;;;;;2.07;100.00;97469.20;1677754;84;21530;-72
2022/01/04 06:53:50;;;;;;;4.73;3.73;;;;;;;2.07;100.00;97475.39;1699102;84;21054;-71
2022/01/04 06:56:17;;;;;;;6.97;4.00;;;;;;;2.10;100.00;97478.18;1687505;84;21702;-71
2022/01/04 06:58:44;;;;;;;6.00;3.50;;;;;;;2.12;100.00;97478.01;1685704;85;21033;-71
2022/01/04 07:01:11;;;;;;;5.73;3.83;;;;;;;2.16;100.00;97492.63;1686300;85;21062;-71
2022/01/04 07:03:38;;;;;;;6.17;3.80;;;;;;;2.18;100.00;97484.78;1690687;85;21037;-73
2022/01/04 07:06:05;;;;;;;7.37;4.27;;;;;;;2.19;100.00;97485.09;1671589;84;21025;-72
2022/01/04 07:08:33;;;;;;;6.93;3.70;;;;;;;2.21;100.00;97485.77;1677193;84;21054;-71
2022/01/04 07:11:00;;;;;;;7.27;4.07;;;;;;;2.23;100.00;97488.23;1675042;84;21515;-71
2022/01/04 07:13:26;;;;;;;8.27;4.40;;;;;;;2.23;100.00;97493.56;1693669;82;21056;-70
2022/01/04 07:15:55;;;;;;;7.73;4.30;;;;;;;2.25;100.00;97496.39;1700008;84;21058;-71
2022/01/04 07:18:22;;;;;;;7.77;4.20;;;;;;;2.28;100.00;97501.37;1686441;84;21034;-71
2022/01/04 07:20:51;;;;;;;5.60;3.60;;;;;;;2.27;100.00;97499.70;1689490;84;21597;-70
2022/01/04 07:23:19;;;;;;;5.50;3.93;;;;;;;2.28;100.00;97508.03;1691638;84;21065;-71
2022/01/04 07:25:49;;;;;;;5.67;3.70;;;;;;;2.30;100.00;97509.67;1666907;85;21072;-68
2022/01/04 07:28:23;;;;;;;6.10;4.30;;;;;;;2.30;100.00;97512.34;1666469;85;21084;-69
2022/01/04 07:30:50;;;;;;;6.20;3.90;;;;;;;2.27;100.00;97515.70;1695434;83;21615;-69
2022/01/04 07:33:17;;;;;;;5.90;3.97;;;;;;;2.28;100.00;97519.19;1693757;84;21086;-68
2022/01/04 07:35:44;;;;;;;7.37;4.50;;;;;;;2.29;100.00;97519.52;1690485;82;21105;-70
2022/01/04 07:38:12;;;;;;;11.27;6.73;;;;;;;2.27;100.00;97519.70;1702898;83;21053;-71
2022/01/04 07:40:39;;;;;;;9.60;5.40;;;;;;;2.25;100.00;97527.56;1686497;84;21017;-69
2022/01/04 07:43:06;;;;;;;9.20;4.73;;;;;;;2.23;100.00;97530.41;1705009;84;21057;-70
2022/01/04 07:45:34;;;;;;;9.13;4.53;;;;;;;2.23;100.00;97530.89;1746063;81;21497;-71
2022/01/04 07:48:01;;;;;;;8.90;4.70;;;;;;;2.23;100.00;97531.73;1756022;81;20996;-72
2022/01/04 07:50:28;;;;;;;11.63;5.47;;;;;;;2.24;100.00;97537.38;1726391;81;21058;-71
2022/01/04 07:52:55;;;;;;;12.10;6.23;;;;;;;2.25;100.00;97546.23;1717923;82;21025;-70
2022/01/04 07:55:22;;;;;;;18.03;7.20;;;;;;;2.25;100.00;97545.72;1751850;81;21029;-70
2022/01/04 07:57:49;;;;;;;18.77;8.40;;;;;;;2.26;100.00;97547.87;1755835;81;20990;-72
2022/01/04 08:00:16;;;;;;;20.13;8.23;;;;;;;2.27;100.00;97549.54;1756520;81;21008;-71
2022/01/04 08:02:45;;;;;;;21.00;9.73;;;;;;;2.27;100.00;97553.54;1752739;81;21464;-71
2022/01/04 08:05:13;;;;;;;20.37;9.53;;;;;;;2.26;100.00;97558.02;1765223;80;20957;-71
2022/01/04 08:07:40;;;;;;;26.67;12.67;;;;;;;2.27;100.00;97559.69;1762913;81;21047;-73
2022/01/04 08:10:08;;;;;;;21.90;9.20;;;;;;;2.29;100.00;97562.19;1723977;81;21584;-72
2022/01/04 08:12:35;;;;;;;34.07;17.23;;;;;;;2.31;100.00;97560.67;1762328;81;21052;-70
2022/01/04 08:15:05;;;;;;;24.80;12.00;;;;;;;2.32;100.00;97562.31;1760541;81;21040;-75
2022/01/04 08:17:32;;;;;;;18.00;8.67;;;;;;;2.33;100.00;97573.33;1728141;82;21057;-72
2022/01/04 08:20:00;;;;;;;28.80;15.73;;;;;;;2.30;100.00;97574.49;1757299;81;21049;-69
2022/01/04 08:22:34;;;;;;;34.60;19.53;;;;;;;2.30;100.00;97575.00;1754271;80;21557;-71
2022/01/04 08:25:05;;;;;;;19.87;10.27;;;;;;;2.28;100.00;97581.37;1748671;81;21143;-71
2022/01/04 08:27:34;;;;;;;18.50;8.40;;;;;;;2.31;100.00;97583.34;1752415;81;21558;-71
2022/01/04 08:30:04;;;;;;;30.70;17.67;;;;;;;2.32;100.00;97582.31;1744875;82;21026;-72
2022/01/04 08:32:33;;;;;;;27.27;13.00;;;;;;;2.30;100.00;97579.83;1729142;82;21119;-70
2022/01/04 08:35:02;;;;;;;40.50;23.07;;;;;;;2.30;100.00;97581.16;1735181;81;21014;-72
2022/01/04 08:37:30;;;;;;;23.63;11.57;;;;;;;2.31;100.00;97582.83;1738619;81;21578;-71
2022/01/04 08:39:57;;;;;;;30.17;15.07;;;;;;;2.31;100.00;97585.50;1710438;82;21014;-70
2022/01/04 08:42:24;;;;;;;32.00;18.57;;;;;;;2.32;100.00;97584.98;1740919;81;21018;-71
2022/01/04 08:44:51;;;;;;;27.30;15.00;;;;;;;2.32;100.00;97585.84;1739612;81;21046;-72
2022/01/04 08:47:18;;;;;;;40.83;25.90;;;;;;;2.34;100.00;97590.97;1740103;81;20959;-70
2022/01/04 08:49:46;;;;;;;36.67;21.03;;;;;;;2.33;100.00;97587.99;1706827;83;21034;-72
2022/01/04 08:52:13;;;;;;;25.37;14.13;;;;;;;2.32;100.00;97584.98;1675189;84;21068;-70
2022/01/04 08:54:40;;;;;;;21.30;11.00;;;;;;;2.30;100.00;97593.16;1680570;84;21002;-70
2022/01/04 08:57:07;;;;;;;29.27;20.07;;;;;;;2.30;100.00;97588.34;1674167;85;21053;-72
2022/01/04 08:59:34;;;;;;;23.73;14.27;;;;;;;2.31;100.00;97593.50;1654323;85;21217;-73
2022/01/04 09:02:01;;;;;;;13.93;7.50;;;;;;;2.33;100.00;97597.33;1652806;85;21054;-72
2022/01/04 09:04:29;;;;;;;15.10;6.90;;;;;;;2.33;100.00;97593.33;1640648;85;21104;-70
2022/01/04 09:06:56;;;;;;;12.37;6.70;;;;;;;2.32;100.00;97600.98;1683680;84;21060;-71
2022/01/04 09:09:23;;;;;;;15.47;7.57;;;;;;;2.31;100.00;97600.17;1696157;83;21066;-70
2022/01/04 09:11:50;;;;;;;13.17;7.23;;;;;;;2.34;100.00;97609.63;1687473;84;21536;-70
2022/01/04 09:14:27;;;;;;;15.50;8.30;;;;;;;2.32;100.00;97613.84;1691229;84;21032;-72
2022/01/04 09:19:41;;;;;;;15.77;8.37;;;;;;;2.32;100.00;97620.98;1677655;84;21080;-69
2022/01/04 09:22:08;;;;;;;17.67;8.83;;;;;;;2.30;100.00;97627.00;1676027;85;21081;-68
2022/01/04 09:24:39;;;;;;;26.17;16.33;;;;;;;2.28;100.00;97629.84;1672452;85;21066;-68
2022/01/04 09:27:06;;;;;;;23.13;14.53;;;;;;;2.25;100.00;97633.71;1676438;85;22017;-71
2022/01/04 09:29:33;;;;;;;32.70;18.07;;;;;;;2.23;100.00;97628.21;1672243;85;21010;-70
2022/01/04 09:32:01;;;;;;;42.00;23.63;;;;;;;2.21;100.00;97637.75;1679003;83;21056;-70
2022/01/04 09:34:29;;;;;;;35.20;21.23;;;;;;;2.21;100.00;97640.41;1747924;81;21061;-69
2022/01/04 09:36:57;;;;;;;26.70;13.80;;;;;;;2.24;100.00;97640.04;1719810;82;21754;-72
2022/01/04 09:39:25;;;;;;;22.83;11.07;;;;;;;2.28;100.00;97635.18;1716028;82;21499;-71
2022/01/04 09:41:55;;;;;;;31.60;15.03;;;;;;;2.30;100.00;97632.34;1746581;81;21013;-73
2022/01/04 09:44:22;;;;;;;32.67;14.07;;;;;;;2.30;100.00;97643.01;1707620;83;20999;-69
2022/01/04 09:46:50;;;;;;;54.37;29.63;;;;;;;2.30;100.00;97639.83;1679925;85;21065;-69
2022/01/04 09:49:17;;;;;;;51.70;29.67;;;;;;;2.30;100.00;97647.83;1696028;83;21050;-68
2022/01/04 09:51:45;;;;;;;34.60;17.10;;;;;;;2.32;100.00;97646.32;1671658;84;21105;-69
2022/01/04 09:54:12;;;;;;;44.10;21.80;;;;;;;2.32;100.00;97641.84;1676450;84;21011;-78
2022/01/04 09:56:40;;;;;;;54.17;25.90;;;;;;;2.35;100.00;97645.97;1690396;84;21117;-76
2022/01/04 09:59:08;;;;;;;40.23;20.73;;;;;;;2.36;100.00;97636.98;1686245;85;21057;-70
2022/01/04 10:01:38;;;;;;;69.97;43.47;;;;;;;2.38;100.00;97642.45;1725603;82;21041;-70
2022/01/04 10:04:05;;;;;;;62.63;40.33;;;;;;;2.41;100.00;97644.77;1719755;83;21069;-68
2022/01/04 10:06:34;;;;;;;34.33;20.17;;;;;;;2.44;100.00;97640.91;1719136;83;21109;-70
2022/01/04 10:09:12;;;;;;;37.23;20.13;;;;;;;2.46;100.00;97633.06;1693229;83;21334;-71
2022/01/04 10:11:47;;;;;;;32.43;20.40;;;;;;;2.48;100.00;97626.22;1719801;82;20992;-72
2022/01/04 10:14:35;;;;;;;30.50;19.70;;;;;;;2.52;100.00;97626.70;1697647;83;21599;-71
2022/01/04 10:17:07;;;;;;;36.47;23.73;;;;;;;2.55;100.00;97630.31;1625595;86;21583;-71
2022/01/04 10:19:46;;;;;;;48.00;31.13;;;;;;;2.57;100.00;97630.48;1602663;88;21048;-68
2022/01/04 10:22:25;;;;;;;37.00;24.07;;;;;;;2.61;100.00;97630.95;1582918;90;21292;-70
2022/01/04 10:25:06;;;;;;;48.57;33.23;;;;;;;2.66;100.00;97628.06;1584641;90;21086;-71
2022/01/04 10:27:46;;;;;;;46.68;30.50;;;;;;;2.71;100.00;97630.20;1563747;90;21082;-70
2022/01/04 10:30:30;;;;;;;26.30;13.37;;;;;;;2.74;100.00;97633.82;1582800;90;20998;-69
2022/01/04 10:33:06;;;;;;;36.50;20.07;;;;;;;2.75;100.00;97624.82;1548462;90;21099;-70
2022/01/04 10:35:44;;;;;;;35.17;20.40;;;;;;;2.77;100.00;97625.98;1535274;91;21202;-71
2022/01/04 10:38:32;;;;;;;34.13;17.23;;;;;;;2.76;100.00;97623.82;1539018;92;21140;-71
2022/01/04 10:41:10;;;;;;;67.60;40.00;;;;;;;2.76;100.00;97623.82;1540341;91;21046;-72
2022/01/04 10:44:01;;;;;;;51.83;30.93;;;;;;;2.76;100.00;97625.16;1531589;91;21146;-69
2022/01/04 10:46:41;;;;;;;43.50;26.77;;;;;;;2.76;100.00;97626.48;1552611;91;21090;-70
2022/01/04 10:49:20;;;;;;;38.37;24.07;;;;;;;2.78;100.00;97632.47;1482938;96;21174;-68
2022/01/04 10:52:09;;;;;;;25.10;15.00;;;;;;;2.76;100.00;97632.31;1452703;97;21209;-68
2022/01/04 10:54:36;;;;;;;33.90;18.87;;;;;;;2.72;100.00;97637.18;1486511;96;21607;-68
2022/01/04 10:57:09;;;;;;;31.67;18.13;;;;;;;2.59;100.00;97644.46;1481169;96;21164;-68
2022/01/04 10:59:36;;;;;;;37.13;21.77;;;;;;;2.52;100.00;97652.03;1475177;96;21633;-69
2022/01/04 11:02:04;;;;;;;33.23;19.77;;;;;;;2.41;100.00;97663.95;1457677;97;21162;-69
2022/01/04 11:04:32;;;;;;;31.90;17.97;;;;;;;2.33;100.00;97665.33;1502231;94;21613;-70
2022/01/04 11:07:01;;;;;;;33.83;20.27;;;;;;;2.32;100.00;97660.51;1479067;96;21254;-69
2022/01/04 11:09:30;;;;;;;33.60;19.43;;;;;;;2.25;100.00;97667.55;1486082;95;22333;-68
2022/01/04 11:11:57;;;;;;;39.67;23.10;;;;;;;2.18;100.00;97672.75;1461534;97;21190;-69
2022/01/04 11:14:25;;;;;;;41.23;24.57;;;;;;;2.13;100.00;97682.29;1505531;93;21161;-69
2022/01/04 11:16:54;;;;;;;50.40;26.93;;;;;;;2.11;100.00;97689.13;1507870;92;21068;-70
2022/01/04 11:19:21;;;;;;;55.30;32.30;;;;;;;2.08;100.00;97688.95;1581194;88;21678;-68
2022/01/04 11:21:48;;;;;;;42.03;23.57;;;;;;;2.08;100.00;97692.95;1623107;87;21079;-69
2022/01/04 11:24:18;;;;;;;47.13;26.47;;;;;;;2.07;100.00;97702.45;1620228;88;21086;-70
2022/01/04 11:26:48;;;;;;;43.93;24.97;;;;;;;2.07;100.00;97699.31;1652325;86;21042;-70
2022/01/04 11:29:16;;;;;;;41.00;22.17;;;;;;;2.08;100.00;97704.95;1611174;88;21055;-69
2022/01/04 11:32:08;;;;;;;39.83;19.43;;;;;;;2.12;100.00;97705.95;1569579;90;21106;-70
2022/01/04 11:35:09;;;;;;;37.33;19.90;;;;;;;2.11;100.00;97706.45;1587232;89;21667;-68
2022/01/04 11:37:38;;;;;;;39.43;20.13;;;;;;;2.12;100.00;97702.77;1568357;90;21126;-69
2022/01/04 11:40:36;;;;;;;41.30;22.33;;;;;;;2.16;100.00;97704.09;1598953;89;21103;-68
2022/01/04 11:43:05;;;;;;;42.77;22.63;;;;;;;2.23;100.00;97704.20;1533531;92;21134;-75
2022/01/04 11:45:48;;;;;;;38.50;20.40;;;;;;;2.26;100.00;97706.02;1539234;89;21141;-69